Etusivu
METAR-TAF:

METAR-TAF

Lentoasemat :

Chlef, Algeria

Leveyspiiri: 36-13N, Pituuspiiri: 001-20E, korkeus merenpinnasta: 143 m

Tämänhetkinen sää

Tämä raportti tehtiin 34 minuuttia sitten, kello 20.00 UTC
Tuuli 7 kn koillisesta
Lämpötila 14°C
Kosteus 58%
Ilmanpaine 1020 hPa
Näkyvyys 10 km tai enemmän
ei pilviä alle 1500 m:ssä eikä cumulonimbus-pilviä

METAR: DAOI 062000Z 04007KT CAVOK 14/06 Q1020

Aika: 21:34 (20:34 UTC)

Sääennuste

Tämä raportti tehtiin 3 tuntia ja 34 minuuttia sitten, kello 17.00 UTC
Ennuste voimassa 06. päivästä klo 18 UTC - 07. päivään klo 18 UTC
Tuuli 10 kn idästä/koillisesta
Näkyvyys 10 km tai enemmän
ei pilviä alle 1500 m:ssä eikä cumulonimbus-pilviä
Tulossa
06. päivästä klo 20 UTC - 06. päivään klo 22 UTC
Tuuli 2 kn eri suunnista
Tulossa
07. päivästä klo 10 UTC - 07. päivään klo 12 UTC
Tuuli 10 kn luoteesta

TAF: DAOI 061700Z 0618/0718 06010KT CAVOK BECMG 0620/0622 VRB02KT BECMG 0710/0712 32010KT

Säähavainnot ja -ennusteet yli 4000 lentoasemalta (METAR- ja TAF-raportit).

Käytössä olevat sääasemat on merkitty karttaan keltaisilla ja punaisilla pisteillä.

Aseta hiiri pisteen päälle nähdäksesi sääaseman nimen.

Klikkaa sitten nähdäksesi säähavainnot ja -ennusteet.

Kartan vaihtaminen: klikkaa mustalla rastilla varustettuja vihreitä pisteitä, niin voit zoomata sisään; viivalla varustettua vihreää pistettä, niin voit zoomata ulos tai vihreitä nuolia, niin pääset viereisille kartoille.


METAR-TAF: